Pembroke, United Kingdom
Current Conditions -  °F | °C
As of 11:50 AM on Monday 20 Oct 2014 (Local Time) from EGOP Reporting Station
Scattered Clouds Scattered Clouds  
Wind Chill: 59°   Ceiling: Unl
Heat Index: 59°   Visibility: 6mi
Dew Point: 54°   Wind: 22mph
Humidity: 82%   Direction: 260°W
Pressure: 30"   Gusts: NA
Location:  51.67°N, 4.91°W
Report Text: EGOP 201050Z 26019KT 9999 SCT020 SCT050 15/12 Q1016 WHT
Loading
Personal Weather Stations






























Interactive Weather Map New forecast layout! Learn more

10-Day Weather Forecast

Advertisements
Track Severe Weather on mobile